createdAt,value
2019-01-30T00:01:40.848Z,7.26
2019-01-30T00:06:48.459Z,6.55
2019-01-30T00:11:56.192Z,6.93
2019-01-30T00:17:03.824Z,6.33
2019-01-30T00:22:11.512Z,6.64
2019-01-30T00:27:19.115Z,5.65
2019-01-30T00:32:26.828Z,7.07
2019-01-30T00:37:34.431Z,6.27
2019-01-30T00:42:42.128Z,7.65
2019-01-30T00:47:49.762Z,7.35
2019-01-30T00:52:57.561Z,6.60
2019-01-30T00:58:05.184Z,9.13
2019-01-30T01:03:12.868Z,6.39
2019-01-30T01:08:20.480Z,6.97
2019-01-30T01:13:28.180Z,7.95
2019-01-30T01:18:35.859Z,6.51
2019-01-30T01:23:43.610Z,7.68
2019-01-30T01:28:51.395Z,7.41
2019-01-30T01:33:59.161Z,7.30
2019-01-30T01:39:06.884Z,6.79
2019-01-30T01:44:14.662Z,7.71
2019-01-30T01:49:22.366Z,6.70
2019-01-30T01:54:30.226Z,6.90
2019-01-30T01:59:37.949Z,8.12
2019-01-30T02:04:45.695Z,7.54
2019-01-30T02:09:53.354Z,8.35
2019-01-30T02:15:01.123Z,8.22
2019-01-30T02:20:08.827Z,7.64
2019-01-30T02:25:16.641Z,7.87
2019-01-30T02:30:24.354Z,7.42
2019-01-30T02:35:32.127Z,7.93
2019-01-30T02:40:39.836Z,8.93
2019-01-30T02:45:47.580Z,9.88
2019-01-30T02:50:55.318Z,8.38
2019-01-30T02:56:03.166Z,8.39
2019-01-30T03:01:10.878Z,8.44
2019-01-30T03:06:18.731Z,8.48
2019-01-30T03:11:26.431Z,7.19
2019-01-30T03:16:34.215Z,7.16
2019-01-30T03:21:41.906Z,8.33
2019-01-30T03:26:49.662Z,8.38
2019-01-30T03:31:57.337Z,8.42
2019-01-30T03:37:05.135Z,8.19
2019-01-30T03:42:12.834Z,7.33
2019-01-30T03:47:20.654Z,7.72
2019-01-30T03:52:28.363Z,7.39
2019-01-30T03:57:36.096Z,8.67
2019-01-30T04:02:43.939Z,9.48
2019-01-30T04:07:51.724Z,8.04
2019-01-30T04:12:59.469Z,8.23
2019-01-30T04:18:07.210Z,8.44
2019-01-30T04:23:14.934Z,7.98
2019-01-30T04:28:22.807Z,8.17
2019-01-30T04:33:30.538Z,7.95
2019-01-30T04:38:38.334Z,9.04
2019-01-30T04:43:46.058Z,8.28
2019-01-30T04:48:53.842Z,9.02
2019-01-30T04:54:01.578Z,8.31
2019-01-30T04:59:09.437Z,8.79
2019-01-30T05:04:17.138Z,8.48
2019-01-30T05:09:25.016Z,8.67
2019-01-30T05:14:32.695Z,9.21
2019-01-30T05:19:40.467Z,9.06
2019-01-30T05:24:48.165Z,9.19
2019-01-30T05:29:55.946Z,9.83
2019-01-30T05:35:03.620Z,9.76
2019-01-30T05:40:11.613Z,9.54
2019-01-30T05:45:19.278Z,9.75
2019-01-30T05:50:27.007Z,10.06
2019-01-30T05:55:34.708Z,8.79
2019-01-30T06:00:42.433Z,9.21
2019-01-30T06:05:50.130Z,9.58
2019-01-30T06:10:57.858Z,8.27
2019-01-30T06:16:05.694Z,9.09
2019-01-30T06:21:13.476Z,10.07
2019-01-30T06:26:21.223Z,9.14
2019-01-30T06:31:28.966Z,9.62
2019-01-30T06:36:36.689Z,9.52
2019-01-30T06:41:44.553Z,9.94
2019-01-30T06:46:52.317Z,9.39
2019-01-30T06:52:00.176Z,9.25
2019-01-30T06:57:07.849Z,11.01
2019-01-30T07:02:15.686Z,9.70
2019-01-30T07:07:23.402Z,10.03
2019-01-30T07:12:31.195Z,10.35
2019-01-30T07:17:38.877Z,10.64
2019-01-30T07:22:46.635Z,10.88
2019-01-30T07:27:54.347Z,10.74
2019-01-30T07:33:02.188Z,10.93
2019-01-30T07:38:09.879Z,11.62
2019-01-30T07:43:17.706Z,9.93
2019-01-30T07:48:27.315Z,10.65
2019-01-30T07:53:32.657Z,10.90
2019-01-30T07:58:40.389Z,9.72
2019-01-30T08:03:48.129Z,11.50
2019-01-30T08:08:55.828Z,10.32
2019-01-30T08:14:03.614Z,10.20
2019-01-30T08:19:11.404Z,9.67
2019-01-30T08:24:19.146Z,11.82
2019-01-30T08:29:27.243Z,10.40
2019-01-30T08:34:34.253Z,9.44
2019-01-30T08:39:41.982Z,11.43
2019-01-30T08:44:49.691Z,9.73
2019-01-30T08:49:57.453Z,10.33
2019-01-30T08:55:05.175Z,10.74
2019-01-30T09:00:12.954Z,13.24
2019-01-30T09:05:20.716Z,12.37
2019-01-30T09:10:28.397Z,14.37
2019-01-30T09:15:36.314Z,12.07
2019-01-30T09:20:44.028Z,16.07
2019-01-30T09:25:51.872Z,12.91
2019-01-30T09:30:59.500Z,13.50
2019-01-30T09:36:07.246Z,14.77
2019-01-30T09:41:14.939Z,15.78
2019-01-30T09:46:22.751Z,15.82
2019-01-30T09:51:30.426Z,18.52
2019-01-30T09:56:38.252Z,18.16
2019-01-30T10:01:45.947Z,13.99
2019-01-30T10:06:53.817Z,15.69
2019-01-30T10:12:01.490Z,15.36
2019-01-30T10:17:09.381Z,16.98
2019-01-30T10:22:17.111Z,19.76
2019-01-30T10:27:24.843Z,16.88
2019-01-30T10:32:32.470Z,16.97
2019-01-30T10:37:40.356Z,16.14
2019-01-30T10:42:48.028Z,14.86
2019-01-30T10:47:55.858Z,18.57
2019-01-30T10:53:03.569Z,16.20
2019-01-30T10:58:11.466Z,18.11
2019-01-30T11:03:19.194Z,17.94
2019-01-30T11:08:27.034Z,17.01
2019-01-30T11:13:34.773Z,16.11
2019-01-30T11:18:42.630Z,17.03
2019-01-30T11:23:50.331Z,18.61
2019-01-30T11:28:58.104Z,18.78
2019-01-30T11:34:07.450Z,22.05
2019-01-30T11:39:13.035Z,19.50
2019-01-30T11:44:20.798Z,19.34
2019-01-30T11:49:28.548Z,18.73
2019-01-30T11:54:38.835Z,17.61
2019-01-30T11:59:43.594Z,19.45
2019-01-30T12:04:51.273Z,18.64
2019-01-30T12:09:59.048Z,17.87
2019-01-30T12:15:06.724Z,17.15
2019-01-30T12:20:14.503Z,18.65
2019-01-30T12:25:22.205Z,17.64
2019-01-30T12:30:29.983Z,18.46
2019-01-30T12:35:37.695Z,18.00
2019-01-30T12:40:45.453Z,17.14
2019-01-30T12:45:53.186Z,18.08
2019-01-30T12:51:01.007Z,17.10
2019-01-30T12:56:08.710Z,17.45
2019-01-30T13:01:16.524Z,18.25
2019-01-30T13:06:24.291Z,21.31
2019-01-30T13:11:32.178Z,19.22
2019-01-30T13:16:39.914Z,21.63
2019-01-30T13:21:47.648Z,19.59
2019-01-30T13:26:55.431Z,20.72
2019-01-30T13:32:03.217Z,19.49
2019-01-30T13:37:10.935Z,25.17
2019-01-30T13:42:18.730Z,21.72
2019-01-30T13:47:26.538Z,23.35
2019-01-30T13:52:34.416Z,25.39
2019-01-30T13:57:43.072Z,19.92
2019-01-30T14:02:50.912Z,19.50
2019-01-30T14:07:58.658Z,20.76
2019-01-30T14:13:06.562Z,22.63
2019-01-30T14:18:14.316Z,22.37
2019-01-30T14:23:22.081Z,20.82
2019-01-30T14:28:29.749Z,22.31
2019-01-30T14:33:37.577Z,21.96
2019-01-30T14:38:45.297Z,26.08
2019-01-30T14:43:53.064Z,26.94
2019-01-30T14:49:00.715Z,25.73
2019-01-30T14:54:08.461Z,25.44
2019-01-30T14:59:16.223Z,27.02
2019-01-30T15:04:23.943Z,22.81
2019-01-30T15:09:31.688Z,24.05
2019-01-30T15:14:39.476Z,31.49
2019-01-30T15:19:47.219Z,27.60
2019-01-30T15:24:54.889Z,26.92
2019-01-30T15:30:02.633Z,27.84
2019-01-30T15:35:10.330Z,27.33
2019-01-30T15:40:18.025Z,28.81
2019-01-30T15:45:25.772Z,29.49
2019-01-30T15:50:33.446Z,36.35
2019-01-30T15:55:41.310Z,28.94
2019-01-30T16:00:48.996Z,26.19
2019-01-30T16:05:56.684Z,34.02
2019-01-30T16:11:04.440Z,29.58
2019-01-30T16:16:12.236Z,40.37
2019-01-30T16:21:19.908Z,30.46
2019-01-30T16:26:27.640Z,30.15
2019-01-30T16:31:35.290Z,35.87
2019-01-30T16:36:43.031Z,32.46
2019-01-30T16:41:50.715Z,30.76
2019-01-30T16:46:58.498Z,29.37
2019-01-30T16:52:06.204Z,31.69
2019-01-30T16:57:13.936Z,49.75
2019-01-30T17:02:21.656Z,41.13
2019-01-30T17:07:29.388Z,54.23
2019-01-30T17:12:37.032Z,57.54
2019-01-30T17:17:44.857Z,45.81
2019-01-30T17:22:52.506Z,40.99
2019-01-30T17:28:00.223Z,42.92
2019-01-30T17:33:07.910Z,72.35
2019-01-30T17:38:15.738Z,55.63
2019-01-30T17:43:23.462Z,52.66
2019-01-30T17:48:31.272Z,72.69
2019-01-30T17:53:38.983Z,72.54
2019-01-30T17:58:46.889Z,69.39
2019-01-30T18:03:55.124Z,53.19
2019-01-30T18:09:02.954Z,47.68
2019-01-30T18:14:10.639Z,45.44
2019-01-30T18:19:18.458Z,44.17
2019-01-30T18:24:26.209Z,65.76
2019-01-30T18:29:34.114Z,48.15
2019-01-30T18:34:41.775Z,49.46
2019-01-30T18:39:49.772Z,51.75
2019-01-30T18:44:57.230Z,48.79
2019-01-30T18:50:05.122Z,67.21
2019-01-30T18:55:12.814Z,45.10
2019-01-30T19:00:20.509Z,44.63
2019-01-30T19:05:28.190Z,42.89
2019-01-30T19:10:36.029Z,58.66
2019-01-30T19:15:43.716Z,42.69
2019-01-30T19:20:51.491Z,44.80
2019-01-30T19:25:59.242Z,41.85
2019-01-30T19:31:07.028Z,45.82
2019-01-30T19:36:14.731Z,42.43
2019-01-30T19:41:22.568Z,50.11
2019-01-30T19:46:30.266Z,66.38
2019-01-30T19:51:38.020Z,56.15
2019-01-30T19:56:45.804Z,72.60
2019-01-30T20:01:53.561Z,72.54
2019-01-30T20:07:01.289Z,49.62
2019-01-30T20:12:09.127Z,70.87
2019-01-30T20:17:16.989Z,52.31
2019-01-30T20:22:24.978Z,72.80
2019-01-30T20:27:32.837Z,69.07
2019-01-30T20:32:40.621Z,53.61
2019-01-30T20:37:48.349Z,69.68
2019-01-30T20:42:56.065Z,67.64
2019-01-30T20:48:03.790Z,49.35
2019-01-30T20:53:11.671Z,41.25
2019-01-30T20:58:19.378Z,53.42
2019-01-30T21:03:27.075Z,39.03
2019-01-30T21:08:34.714Z,38.16
2019-01-30T21:13:42.451Z,38.18
2019-01-30T21:18:50.138Z,38.41
2019-01-30T21:23:57.874Z,50.50
2019-01-30T21:29:05.548Z,48.54
2019-01-30T21:34:13.389Z,33.48
2019-01-30T21:39:21.090Z,31.58
2019-01-30T21:44:28.887Z,51.02
2019-01-30T21:49:36.528Z,50.70
2019-01-30T21:54:44.300Z,52.74
2019-01-30T21:59:51.994Z,45.38
2019-01-30T22:04:59.797Z,44.40
2019-01-30T22:10:07.558Z,48.20
2019-01-30T22:15:15.395Z,49.56
2019-01-30T22:20:23.124Z,77.35
2019-01-30T22:25:30.890Z,50.11
2019-01-30T22:30:38.563Z,51.88
2019-01-30T22:35:46.342Z,52.85
2019-01-30T22:40:54.085Z,51.22
2019-01-30T22:46:01.824Z,50.14
2019-01-30T22:51:09.503Z,45.85
2019-01-30T22:56:17.312Z,48.13
2019-01-30T23:01:25.020Z,46.67
2019-01-30T23:06:32.820Z,44.67
2019-01-30T23:11:40.567Z,63.13
2019-01-30T23:16:48.430Z,49.49
2019-01-30T23:21:56.113Z,41.44
2019-01-30T23:27:03.838Z,39.50
2019-01-30T23:32:11.550Z,38.55
2019-01-30T23:37:19.475Z,43.99
2019-01-30T23:42:27.184Z,36.93
2019-01-30T23:47:35.040Z,38.66
2019-01-30T23:52:42.752Z,38.36
2019-01-30T23:57:50.586Z,41.37
